Skip to main content

NOAA/GLERL Met Station at Michigan City, IN

Previous 5 days (top of hour only)
See also Previous 3 Hours (2 minute increments)
Jump down to Data
Switch to [English][Metric]
Zoom: Click and drag, Pan: shift-click and drag, Unzoom: double-click, Unzoom All






Note: Speed = mean wind during 2-minute period at top of hour,
Gust = max wind during 2-minute period at top of hour,
Peak = max wind during entire hour.
• See also 5-day windrose plot


NOAA/GLERL Met Station at Michigan City, IN

Previous 5 days (top of hour only)
See also Previous 3 Hours (2 minute increments)
Jump up to Graphs
Switch to [English][Metric]
                  Wind  Wind  Wind   Air   Dew   Rel     Sta   PAR
                   Spd   Gst   Dir  Temp    Pt   Hum    Pres uE/m2/
YYYY-MM-DD   CDT   m/s   m/s   deg     C     C     %      mb   sec
2024-06-15 16:00   6.2   8.2   223  27.0  11.6  37.7  994.20  1316
2024-06-15 15:00   6.1   8.4   211  26.9  11.3  37.2  994.70   784
2024-06-15 14:00   5.8   6.9   203  26.4  11.7  39.2  995.00  1500
2024-06-15 13:00   6.8   8.5   194  25.4  11.4  41.0  995.50  1180
2024-06-15 12:00   8.0   9.8   220  24.6  10.5  40.6  995.90  1603
2024-06-15 11:00   8.4   9.9   210  23.6  10.3  42.4  995.90  1091
2024-06-15 10:00   6.9   8.8   222  22.9  10.2  43.9  996.30  1467
2024-06-15 09:00   9.3  11.0   199  21.2  10.0  48.3  996.40  1147
2024-06-15 08:00   5.5   6.5   212  20.0  12.0  59.4  996.60   348
2024-06-15 07:00   6.5   8.5   208  19.7  12.2  61.4  995.90   164
2024-06-15 06:00   6.0   7.6   195  19.2  13.2  67.7  995.50   164
2024-06-15 05:00   4.5   5.8   199  18.2  13.7  74.7  994.90     0
2024-06-15 04:00   3.0   3.7   202  16.8  13.7  81.6  994.10     0
2024-06-15 03:00   1.2   1.4   189  16.7  14.7  88.0  993.90     0
2024-06-15 02:00   1.0   1.2   116  18.4  15.3  81.7  994.10     0
2024-06-15 01:00   2.4   2.9    33  18.2  15.2  82.3  994.30     0
2024-06-15 00:00   1.8   2.2    13  18.3  15.3  82.6  994.30     0
2024-06-14 23:00   2.2   2.6    73  18.5  14.8  79.0  994.20     0
2024-06-14 22:00   3.9   4.3    93  18.8  14.0  73.2  994.20     0
2024-06-14 21:00   4.7   5.3    98  18.8  14.1  73.8  993.60     0
2024-06-14 20:00   5.3   5.8   103  18.6  14.4  76.0  993.30     0
2024-06-14 19:00   6.9   8.0    88  18.9  15.2  78.6  993.30   327
2024-06-14 18:00   5.6   5.9    89  18.9  15.3  79.5  992.80   654
2024-06-14 17:00   4.8   5.4    72  19.5  16.2  81.2  992.90   954
2024-06-14 16:00   4.1   4.5    87  18.2  17.5  95.9  992.00  1145
2024-06-14 15:00   2.4   2.6   120  17.3  17.3 100.0  992.00  1472
2024-06-14 14:00   2.9   3.0    90  18.3  17.4  94.4  992.10  1636
2024-06-14 13:00   2.8   3.0    89  18.8  16.2  84.9  992.20  1637
2024-06-14 12:00   2.7   6.6    13  20.2  16.1  77.1  991.80  1637
2024-06-14 11:00   2.0   2.3   346  19.3  16.2  81.8  991.60  1636
2024-06-14 10:00   1.5   2.1    43  19.9  16.2  79.0  991.40  1337
2024-06-14 09:00   2.7   3.1   338  18.7  15.7  82.7  991.00  1146
2024-06-14 08:00   3.8   4.0   340  18.9  16.7  86.6  990.20   819
2024-06-14 07:00   3.6   3.7   319  19.1  18.1  93.9  989.80   492
2024-06-14 06:00   2.9   3.3   299  19.1  18.3  95.0  989.80   164
2024-06-14 05:00   3.6   3.8   270  19.2  18.4  95.1  989.40     0
2024-06-14 04:00   3.9   4.2   280  19.7  18.8  94.4  989.20     0
2024-06-14 03:00   4.1   4.5   282  20.2  18.9  92.3  988.70     0
2024-06-14 02:00   2.8   2.9   295  20.5  19.0  91.0  987.80     0
2024-06-14 01:00   2.4   2.7   276  21.4  19.2  86.8  987.50     0
2024-06-14 00:00   6.1   7.5   269  21.9  19.3  85.1  988.30     0
2024-06-13 23:00   3.0   4.0   253  21.6  19.7  88.5  987.90     0
2024-06-13 22:00   3.7   4.7   226  21.8  19.6  87.1  987.70     0
2024-06-13 21:00   5.3   5.9   220  22.6  20.2  86.0  986.50     0
2024-06-13 20:00   5.4   6.4   224  23.3  20.6  84.3  986.60     0
2024-06-13 19:00   6.0   7.7   225  23.7  20.6  82.6  986.70   327
2024-06-13 18:00   5.0   5.5   215  23.7  21.7  88.6  986.40   655
2024-06-13 17:00   2.4   3.2   218  23.3  21.2  87.6  988.00    20
2024-06-13 16:00   6.8   9.9   317  23.0  19.3  79.4  987.00   341
2024-06-13 15:00   7.6   8.2   335  25.8  18.1  62.0  986.60   164
2024-06-13 14:00   8.6   9.6   306  28.0  17.6  52.5  986.60  1500
2024-06-13 13:00   9.9  12.5   272  29.5  17.5  47.9  987.00  1513
2024-06-13 12:00   8.4  10.1   290  28.5  18.1  52.6  987.10  1255
2024-06-13 11:00   8.6  10.4   280  26.9  17.9  57.1  987.50  1589
2024-06-13 10:00   7.6   9.2   266  25.5  17.7  61.5  986.60   648
2024-06-13 09:00   9.5  11.6   259  24.5  17.3  63.8  987.10   327
2024-06-13 08:00   6.5   8.6   263  23.7  17.0  65.6  988.70   327
2024-06-13 07:00   6.3   7.3   259  23.1  16.7  66.7  988.40   485
2024-06-13 06:00   7.7   9.3   264  23.3  16.5  65.3  988.00     0
2024-06-13 05:00   6.7   8.2   260  23.4  16.8  66.0  987.50     0
2024-06-13 04:00   6.6   8.2   264  24.2  16.8  62.9  987.50     0
2024-06-13 03:00   6.0   8.1   268  24.6  16.7  60.8  987.30     0
2024-06-13 02:00   6.5   7.6   262  25.0  16.0  56.9  987.00     0
2024-06-13 01:00   6.2   7.1   257  25.0  16.1  57.2  987.10     0
2024-06-13 00:00   7.3   9.4   253  24.9  16.5  59.1  987.50     0
2024-06-12 23:00   6.3   7.9   241  25.9  15.8  53.2  987.00     0
2024-06-12 22:00   5.1   6.5   225  26.8  11.3  37.4  986.60     0
2024-06-12 21:00   3.8   4.6   231  28.7  11.5  33.7  986.60     0
2024-06-12 20:00   3.2   4.3   229  29.6  11.9  32.9  987.00     0
2024-06-12 19:00   2.4   2.9   245  30.3  11.6  31.0  987.50   164
2024-06-12 18:00   1.7   1.9   279  29.8  10.9  30.5  987.60   654
2024-06-12 17:00   1.2   1.2   116  27.4  12.0  37.7  988.30   818
2024-06-12 16:00   2.5   2.6   101  25.4  15.0  52.1  988.80  1145
2024-06-12 15:00   2.6   2.7    99  23.6  16.3  62.9  989.00  1472
2024-06-12 14:00   1.6   1.9    93  23.7  16.8  64.9  989.20  1636
2024-06-12 13:00   4.0   4.3   359  25.7  15.1  51.2  989.70  1636
2024-06-12 12:00   3.6   3.9   342  23.3  15.3  60.3  989.80  1636
2024-06-12 11:00   6.8   7.7   283  24.9  13.8  49.6  989.80  1636
2024-06-12 10:00   5.3   6.0   278  23.4  12.7  50.6  990.00  1310
2024-06-12 09:00   6.2   6.9   270  22.6  11.1  47.7  990.10  1146
2024-06-12 08:00   6.4   7.8   260  20.5   9.7  49.3  990.40   819
2024-06-12 07:00   8.5   9.9   263  20.1   9.6  50.5  989.90   471
2024-06-12 06:00   6.1   8.2   255  18.8   8.5  50.6  989.90   164
2024-06-12 05:00   4.8   6.0   249  18.6   8.0  49.5  989.90     0
2024-06-12 04:00   5.5   6.8   247  19.0   7.4  46.5  989.80     0
2024-06-12 03:00   6.3   8.1   247  19.5   7.3  44.6  989.50     0
2024-06-12 02:00   6.4   7.5   244  20.0   7.3  43.4  989.50     0
2024-06-12 01:00   4.7   6.0   235  20.7   7.7  42.5  989.80     0
2024-06-12 00:00   5.0   5.7   219  21.0   7.2  40.5  990.00     0
2024-06-11 23:00   4.0   5.3   212  21.0   6.3  37.9  990.00     0
2024-06-11 22:00   3.2   3.8   214  20.9   7.6  41.7  990.30     0
2024-06-11 21:00   2.2   2.9   199  21.1   8.4  43.5  989.80     0
2024-06-11 20:00   3.4   4.0   196  22.1   7.2  37.6  990.00     0
2024-06-11 19:00   2.7   3.5   169  22.3   7.5  37.9  989.90   164
2024-06-11 18:00   4.2   4.5   124  20.8  10.1  49.7  989.80   164
2024-06-11 17:00   4.8   5.0   124  19.8   8.4  47.4  990.60   982
2024-06-11 16:00   4.9   5.1   121  18.6   9.6  55.2  991.30  1111
2024-06-11 15:00   3.9   4.1   118  18.0   9.5  57.2  991.60  1459
2024-06-11 14:00   2.5   2.9    74  18.7   8.4  50.7  992.60  1637
2024-06-11 13:00   2.0   2.3    75  18.0   8.6  53.6  992.50  1637
2024-06-11 12:00   1.0   1.8    12  16.8  10.3  65.1  992.80  1637
2024-06-11 11:00   1.5   2.0   349  15.9  10.1  68.2  993.00  1637
2024-06-11 10:00   1.9   2.4   350  15.6  10.7  72.5  993.30  1433
2024-06-11 09:00   1.0   1.5    47  17.3  10.9  65.7  993.50  1147
2024-06-11 08:00   2.8   3.6   348  15.2  10.6  73.7  993.70   819
2024-06-11 07:00   1.4   1.7   208  13.1   9.7  79.4  993.10   492
2024-06-11 06:00   1.8   2.0   230  11.3   8.8  84.3  992.90   164
2024-06-11 05:00   2.0   2.4   221  10.7   8.6  86.5  992.20     0
2024-06-11 04:00   2.3   2.8   111  14.9  10.2  73.0  992.20     0
2024-06-11 03:00   3.5   4.5    84  15.1   9.2  67.4  992.20     0
2024-06-11 02:00   6.1   7.0    86  15.1   8.4  63.8  991.70     0
2024-06-11 01:00   5.8   6.8    69  15.0   6.8  57.8  991.90     0
2024-06-11 00:00   5.7   6.2    70  15.2   7.1  58.0  991.90     0
2024-06-10 23:00   6.1   7.1    71  15.3   5.8  52.9  991.50     0
2024-06-10 22:00   6.8   7.9    72  15.5   5.8  52.0  991.30     0
2024-06-10 21:00   6.7   7.3    75  14.9   6.3  56.2  991.40     0
2024-06-10 20:00   8.2   9.0    71  14.9   6.4  56.4  991.20     0
2024-06-10 19:00   9.3  10.1    69  15.0   4.7  49.8  991.40   328